sensor_id;sensor_type;location;lat;lon;timestamp;P1;durP1;ratioP1;P2;durP2;ratioP2
2858;SDS011;1437;53.250;10.406;2022-12-05T00:02:27;35.77;;;15.50;;
2858;SDS011;1437;53.250;10.406;2022-12-05T00:05:05;36.03;;;16.40;;
2858;SDS011;1437;53.250;10.406;2022-12-05T00:07:46;39.43;;;17.97;;
2858;SDS011;1437;53.250;10.406;2022-12-05T00:10:22;30.23;;;14.27;;
2858;SDS011;1437;53.250;10.406;2022-12-05T00:12:52;36.37;;;15.73;;
2858;SDS011;1437;53.250;10.406;2022-12-05T00:15:36;35.87;;;16.30;;
2858;SDS011;1437;53.250;10.406;2022-12-05T00:18:05;36.00;;;16.07;;
2858;SDS011;1437;53.250;10.406;2022-12-05T00:20:35;28.47;;;15.23;;
2858;SDS011;1437;53.250;10.406;2022-12-05T00:23:03;34.03;;;16.77;;
2858;SDS011;1437;53.250;10.406;2022-12-05T00:25:35;33.40;;;15.40;;
2858;SDS011;1437;53.250;10.406;2022-12-05T00:28:04;32.00;;;14.00;;
2858;SDS011;1437;53.250;10.406;2022-12-05T00:30:40;25.57;;;13.70;;
2858;SDS011;1437;53.250;10.406;2022-12-05T00:33:15;31.70;;;15.03;;
2858;SDS011;1437;53.250;10.406;2022-12-05T00:35:50;29.53;;;15.50;;
2858;SDS011;1437;53.250;10.406;2022-12-05T00:38:21;35.87;;;17.70;;
2858;SDS011;1437;53.250;10.406;2022-12-05T00:40:54;31.10;;;14.97;;
2858;SDS011;1437;53.250;10.406;2022-12-05T00:43:26;27.40;;;14.73;;
2858;SDS011;1437;53.250;10.406;2022-12-05T00:46:04;24.63;;;14.27;;
2858;SDS011;1437;53.250;10.406;2022-12-05T00:48:39;32.97;;;15.93;;
2858;SDS011;1437;53.250;10.406;2022-12-05T00:51:12;28.90;;;13.53;;
2858;SDS011;1437;53.250;10.406;2022-12-05T00:53:45;32.13;;;15.87;;
2858;SDS011;1437;53.250;10.406;2022-12-05T00:56:21;26.37;;;14.80;;
2858;SDS011;1437;53.250;10.406;2022-12-05T00:58:52;32.40;;;16.77;;
2858;SDS011;1437;53.250;10.406;2022-12-05T01:01:30;32.43;;;15.17;;
2858;SDS011;1437;53.250;10.406;2022-12-05T01:04:13;31.73;;;16.03;;
2858;SDS011;1437;53.250;10.406;2022-12-05T01:06:57;28.67;;;14.70;;
2858;SDS011;1437;53.250;10.406;2022-12-05T01:09:36;31.70;;;15.63;;
2858;SDS011;1437;53.250;10.406;2022-12-05T01:12:16;24.70;;;14.40;;
2858;SDS011;1437;53.250;10.406;2022-12-05T01:15:01;29.30;;;16.60;;
2858;SDS011;1437;53.250;10.406;2022-12-05T01:17:36;32.87;;;16.60;;
2858;SDS011;1437;53.250;10.406;2022-12-05T01:20:08;34.40;;;15.77;;
2858;SDS011;1437;53.250;10.406;2022-12-05T01:22:48;38.60;;;16.53;;
2858;SDS011;1437;53.250;10.406;2022-12-05T01:25:21;29.77;;;14.37;;
2858;SDS011;1437;53.250;10.406;2022-12-05T01:27:49;27.10;;;14.50;;
2858;SDS011;1437;53.250;10.406;2022-12-05T01:30:17;28.47;;;13.80;;
2858;SDS011;1437;53.250;10.406;2022-12-05T01:32:44;27.93;;;12.73;;
2858;SDS011;1437;53.250;10.406;2022-12-05T01:35:13;32.93;;;16.93;;
2858;SDS011;1437;53.250;10.406;2022-12-05T01:37:41;33.07;;;17.23;;
2858;SDS011;1437;53.250;10.406;2022-12-05T01:40:15;29.53;;;15.10;;
2858;SDS011;1437;53.250;10.406;2022-12-05T01:42:50;28.90;;;14.30;;
2858;SDS011;1437;53.250;10.406;2022-12-05T01:45:25;31.63;;;14.80;;
2858;SDS011;1437;53.250;10.406;2022-12-05T01:48:01;25.50;;;13.83;;
2858;SDS011;1437;53.250;10.406;2022-12-05T01:50:51;26.00;;;12.47;;
2858;SDS011;1437;53.250;10.406;2022-12-05T01:53:19;32.53;;;15.10;;
2858;SDS011;1437;53.250;10.406;2022-12-05T01:55:51;30.57;;;16.03;;
2858;SDS011;1437;53.250;10.406;2022-12-05T01:58:25;25.67;;;14.77;;
2858;SDS011;1437;53.250;10.406;2022-12-05T02:00:54;32.77;;;15.67;;
2858;SDS011;1437;53.250;10.406;2022-12-05T02:03:22;25.70;;;14.97;;
2858;SDS011;1437;53.250;10.406;2022-12-05T02:05:59;24.80;;;14.47;;
2858;SDS011;1437;53.250;10.406;2022-12-05T02:08:28;26.10;;;14.50;;
2858;SDS011;1437;53.250;10.406;2022-12-05T02:11:01;31.87;;;14.70;;
2858;SDS011;1437;53.250;10.406;2022-12-05T02:13:33;29.13;;;14.50;;
2858;SDS011;1437;53.250;10.406;2022-12-05T02:16:06;32.43;;;16.30;;
2858;SDS011;1437;53.250;10.406;2022-12-05T02:18:51;27.93;;;13.63;;
2858;SDS011;1437;53.250;10.406;2022-12-05T02:21:37;27.90;;;14.87;;
2858;SDS011;1437;53.250;10.406;2022-12-05T02:27:26;23.37;;;13.77;;
2858;SDS011;1437;53.250;10.406;2022-12-05T02:30:03;31.23;;;14.50;;
2858;SDS011;1437;53.250;10.406;2022-12-05T02:32:35;24.00;;;14.60;;
2858;SDS011;1437;53.250;10.406;2022-12-05T02:35:07;26.10;;;14.60;;
2858;SDS011;1437;53.250;10.406;2022-12-05T02:37:39;28.37;;;14.70;;
2858;SDS011;1437;53.250;10.406;2022-12-05T02:40:10;28.97;;;14.23;;
2858;SDS011;1437;53.250;10.406;2022-12-05T02:42:41;35.23;;;15.20;;
2858;SDS011;1437;53.250;10.406;2022-12-05T02:45:12;28.97;;;15.70;;
2858;SDS011;1437;53.250;10.406;2022-12-05T02:47:45;35.17;;;17.00;;
2858;SDS011;1437;53.250;10.406;2022-12-05T02:50:17;33.23;;;15.80;;
2858;SDS011;1437;53.250;10.406;2022-12-05T02:52:46;31.00;;;15.87;;
2858;SDS011;1437;53.250;10.406;2022-12-05T02:55:15;32.37;;;15.20;;
2858;SDS011;1437;53.250;10.406;2022-12-05T02:57:44;30.73;;;15.63;;
2858;SDS011;1437;53.250;10.406;2022-12-05T03:00:14;31.00;;;15.13;;
2858;SDS011;1437;53.250;10.406;2022-12-05T03:02:42;31.17;;;15.27;;
2858;SDS011;1437;53.250;10.406;2022-12-05T03:05:13;33.47;;;15.87;;
2858;SDS011;1437;53.250;10.406;2022-12-05T03:07:45;36.37;;;18.47;;
2858;SDS011;1437;53.250;10.406;2022-12-05T03:10:14;28.73;;;15.67;;
2858;SDS011;1437;53.250;10.406;2022-12-05T03:12:46;29.00;;;14.80;;
2858;SDS011;1437;53.250;10.406;2022-12-05T03:15:20;27.00;;;15.40;;
2858;SDS011;1437;53.250;10.406;2022-12-05T03:17:50;28.73;;;13.33;;
2858;SDS011;1437;53.250;10.406;2022-12-05T03:20:19;23.43;;;12.33;;
2858;SDS011;1437;53.250;10.406;2022-12-05T03:22:50;25.63;;;13.23;;
2858;SDS011;1437;53.250;10.406;2022-12-05T03:25:28;26.97;;;15.43;;
2858;SDS011;1437;53.250;10.406;2022-12-05T03:27:58;29.50;;;14.00;;
2858;SDS011;1437;53.250;10.406;2022-12-05T03:30:32;27.07;;;14.80;;
2858;SDS011;1437;53.250;10.406;2022-12-05T03:33:02;33.57;;;14.70;;
2858;SDS011;1437;53.250;10.406;2022-12-05T03:35:35;31.40;;;13.67;;
2858;SDS011;1437;53.250;10.406;2022-12-05T03:38:05;24.77;;;13.40;;
2858;SDS011;1437;53.250;10.406;2022-12-05T03:40:36;26.13;;;14.20;;
2858;SDS011;1437;53.250;10.406;2022-12-05T03:43:08;25.53;;;14.80;;
2858;SDS011;1437;53.250;10.406;2022-12-05T03:45:43;28.90;;;16.00;;
2858;SDS011;1437;53.250;10.406;2022-12-05T03:48:22;34.17;;;15.33;;
2858;SDS011;1437;53.250;10.406;2022-12-05T03:50:51;26.90;;;13.47;;
2858;SDS011;1437;53.250;10.406;2022-12-05T03:53:20;30.73;;;14.37;;
2858;SDS011;1437;53.250;10.406;2022-12-05T03:55:53;33.27;;;14.37;;
2858;SDS011;1437;53.250;10.406;2022-12-05T03:58:23;28.93;;;13.57;;
2858;SDS011;1437;53.250;10.406;2022-12-05T04:00:57;29.33;;;15.93;;
2858;SDS011;1437;53.250;10.406;2022-12-05T04:03:33;30.00;;;14.67;;
2858;SDS011;1437;53.250;10.406;2022-12-05T04:06:16;26.60;;;16.80;;
2858;SDS011;1437;53.250;10.406;2022-12-05T04:08:50;32.80;;;17.23;;
2858;SDS011;1437;53.250;10.406;2022-12-05T04:11:22;32.77;;;17.00;;
2858;SDS011;1437;53.250;10.406;2022-12-05T04:13:51;27.47;;;14.80;;
2858;SDS011;1437;53.250;10.406;2022-12-05T04:16:26;39.07;;;18.37;;
2858;SDS011;1437;53.250;10.406;2022-12-05T04:19:16;32.63;;;13.60;;
2858;SDS011;1437;53.250;10.406;2022-12-05T04:21:50;26.63;;;14.90;;
2858;SDS011;1437;53.250;10.406;2022-12-05T04:24:27;25.00;;;13.57;;
2858;SDS011;1437;53.250;10.406;2022-12-05T04:27:19;27.57;;;15.00;;
2858;SDS011;1437;53.250;10.406;2022-12-05T04:29:51;35.53;;;15.67;;
2858;SDS011;1437;53.250;10.406;2022-12-05T04:32:26;27.60;;;14.93;;
2858;SDS011;1437;53.250;10.406;2022-12-05T04:35:02;30.80;;;13.73;;
2858;SDS011;1437;53.250;10.406;2022-12-05T04:37:36;33.00;;;17.17;;
2858;SDS011;1437;53.250;10.406;2022-12-05T04:40:11;28.13;;;16.07;;
2858;SDS011;1437;53.250;10.406;2022-12-05T04:42:41;31.80;;;16.50;;
2858;SDS011;1437;53.250;10.406;2022-12-05T04:45:16;33.33;;;17.50;;
2858;SDS011;1437;53.250;10.406;2022-12-05T04:47:56;39.67;;;17.40;;
2858;SDS011;1437;53.250;10.406;2022-12-05T04:50:27;32.80;;;16.93;;
2858;SDS011;1437;53.250;10.406;2022-12-05T04:53:04;29.37;;;16.17;;
2858;SDS011;1437;53.250;10.406;2022-12-05T04:55:42;32.50;;;17.20;;
2858;SDS011;1437;53.250;10.406;2022-12-05T04:58:19;32.97;;;16.80;;
2858;SDS011;1437;53.250;10.406;2022-12-05T05:00:58;36.50;;;18.17;;
2858;SDS011;1437;53.250;10.406;2022-12-05T05:03:32;32.67;;;14.67;;
2858;SDS011;1437;53.250;10.406;2022-12-05T05:06:01;27.80;;;16.10;;
2858;SDS011;1437;53.250;10.406;2022-12-05T05:08:30;34.07;;;16.20;;
2858;SDS011;1437;53.250;10.406;2022-12-05T05:11:02;31.43;;;15.07;;
2858;SDS011;1437;53.250;10.406;2022-12-05T05:13:30;40.60;;;19.30;;
2858;SDS011;1437;53.250;10.406;2022-12-05T05:16:00;36.80;;;16.47;;
2858;SDS011;1437;53.250;10.406;2022-12-05T05:18:32;34.10;;;17.40;;
2858;SDS011;1437;53.250;10.406;2022-12-05T05:21:05;42.00;;;20.57;;
2858;SDS011;1437;53.250;10.406;2022-12-05T05:23:33;36.50;;;18.80;;
2858;SDS011;1437;53.250;10.406;2022-12-05T05:26:01;33.37;;;17.50;;
2858;SDS011;1437;53.250;10.406;2022-12-05T05:28:29;41.00;;;18.20;;
2858;SDS011;1437;53.250;10.406;2022-12-05T05:31:00;37.87;;;18.90;;
2858;SDS011;1437;53.250;10.406;2022-12-05T05:33:33;40.13;;;17.17;;
2858;SDS011;1437;53.250;10.406;2022-12-05T05:36:06;34.80;;;17.10;;
2858;SDS011;1437;53.250;10.406;2022-12-05T05:38:34;36.30;;;17.60;;
2858;SDS011;1437;53.250;10.406;2022-12-05T05:41:02;38.67;;;19.83;;
2858;SDS011;1437;53.250;10.406;2022-12-05T05:43:30;40.23;;;16.63;;
2858;SDS011;1437;53.250;10.406;2022-12-05T05:46:05;53.37;;;19.43;;
2858;SDS011;1437;53.250;10.406;2022-12-05T05:48:36;47.27;;;19.27;;
2858;SDS011;1437;53.250;10.406;2022-12-05T05:51:04;41.87;;;19.13;;
2858;SDS011;1437;53.250;10.406;2022-12-05T05:53:33;41.60;;;20.00;;
2858;SDS011;1437;53.250;10.406;2022-12-05T05:56:01;37.93;;;17.73;;
2858;SDS011;1437;53.250;10.406;2022-12-05T05:58:32;55.13;;;19.70;;
2858;SDS011;1437;53.250;10.406;2022-12-05T06:01:03;42.50;;;20.37;;
2858;SDS011;1437;53.250;10.406;2022-12-05T06:03:30;53.40;;;22.13;;
2858;SDS011;1437;53.250;10.406;2022-12-05T06:06:03;43.50;;;18.67;;
2858;SDS011;1437;53.250;10.406;2022-12-05T06:08:32;44.63;;;19.20;;
2858;SDS011;1437;53.250;10.406;2022-12-05T06:11:03;45.23;;;22.00;;
2858;SDS011;1437;53.250;10.406;2022-12-05T06:13:32;44.00;;;19.63;;
2858;SDS011;1437;53.250;10.406;2022-12-05T06:15:59;50.03;;;20.63;;
2858;SDS011;1437;53.250;10.406;2022-12-05T06:18:30;43.50;;;24.40;;
2858;SDS011;1437;53.250;10.406;2022-12-05T06:20:58;48.30;;;20.60;;
2858;SDS011;1437;53.250;10.406;2022-12-05T06:23:31;44.33;;;21.83;;
2858;SDS011;1437;53.250;10.406;2022-12-05T06:26:00;44.13;;;22.37;;
2858;SDS011;1437;53.250;10.406;2022-12-05T06:28:28;57.60;;;23.67;;
2858;SDS011;1437;53.250;10.406;2022-12-05T06:30:56;48.47;;;20.47;;
2858;SDS011;1437;53.250;10.406;2022-12-05T06:33:24;60.23;;;23.40;;
2858;SDS011;1437;53.250;10.406;2022-12-05T06:36:00;48.77;;;21.13;;
2858;SDS011;1437;53.250;10.406;2022-12-05T06:38:28;64.00;;;23.50;;
2858;SDS011;1437;53.250;10.406;2022-12-05T06:40:57;53.47;;;21.10;;
2858;SDS011;1437;53.250;10.406;2022-12-05T06:43:25;54.37;;;21.03;;
2858;SDS011;1437;53.250;10.406;2022-12-05T06:45:55;60.40;;;21.40;;
2858;SDS011;1437;53.250;10.406;2022-12-05T06:48:26;50.27;;;19.30;;
2858;SDS011;1437;53.250;10.406;2022-12-05T06:50:53;47.10;;;21.40;;
2858;SDS011;1437;53.250;10.406;2022-12-05T06:53:22;64.00;;;25.70;;
2858;SDS011;1437;53.250;10.406;2022-12-05T06:55:54;55.00;;;20.00;;
2858;SDS011;1437;53.250;10.406;2022-12-05T06:58:23;49.83;;;20.20;;
2858;SDS011;1437;53.250;10.406;2022-12-05T07:00:54;51.43;;;22.13;;
2858;SDS011;1437;53.250;10.406;2022-12-05T07:03:39;59.53;;;18.83;;
2858;SDS011;1437;53.250;10.406;2022-12-05T07:06:08;45.90;;;18.73;;
2858;SDS011;1437;53.250;10.406;2022-12-05T07:08:36;53.30;;;23.60;;
2858;SDS011;1437;53.250;10.406;2022-12-05T07:11:10;54.37;;;19.10;;
2858;SDS011;1437;53.250;10.406;2022-12-05T07:13:43;47.40;;;19.93;;
2858;SDS011;1437;53.250;10.406;2022-12-05T07:16:14;50.67;;;21.17;;
2858;SDS011;1437;53.250;10.406;2022-12-05T07:18:43;52.63;;;19.50;;
2858;SDS011;1437;53.250;10.406;2022-12-05T07:21:14;53.37;;;19.10;;
2858;SDS011;1437;53.250;10.406;2022-12-05T07:23:58;45.13;;;17.90;;
2858;SDS011;1437;53.250;10.406;2022-12-05T07:26:25;41.10;;;15.17;;
2858;SDS011;1437;53.250;10.406;2022-12-05T07:28:55;35.33;;;15.97;;
2858;SDS011;1437;53.250;10.406;2022-12-05T07:31:23;29.83;;;13.40;;
2858;SDS011;1437;53.250;10.406;2022-12-05T07:33:54;45.87;;;17.40;;
2858;SDS011;1437;53.250;10.406;2022-12-05T07:36:22;44.20;;;15.23;;
2858;SDS011;1437;53.250;10.406;2022-12-05T07:38:54;41.07;;;16.80;;
2858;SDS011;1437;53.250;10.406;2022-12-05T07:41:24;38.80;;;16.17;;
2858;SDS011;1437;53.250;10.406;2022-12-05T07:43:58;35.53;;;14.27;;
2858;SDS011;1437;53.250;10.406;2022-12-05T07:46:28;30.43;;;14.57;;
2858;SDS011;1437;53.250;10.406;2022-12-05T07:49:00;36.60;;;14.53;;
2858;SDS011;1437;53.250;10.406;2022-12-05T07:51:31;32.97;;;16.33;;
2858;SDS011;1437;53.250;10.406;2022-12-05T07:53:59;29.03;;;13.20;;
2858;SDS011;1437;53.250;10.406;2022-12-05T07:56:31;36.33;;;13.93;;
2858;SDS011;1437;53.250;10.406;2022-12-05T07:59:03;37.83;;;13.93;;
2858;SDS011;1437;53.250;10.406;2022-12-05T08:01:31;28.73;;;13.67;;
2858;SDS011;1437;53.250;10.406;2022-12-05T08:03:59;42.97;;;13.50;;
2858;SDS011;1437;53.250;10.406;2022-12-05T08:06:32;36.83;;;13.60;;
2858;SDS011;1437;53.250;10.406;2022-12-05T08:09:00;32.23;;;12.93;;
2858;SDS011;1437;53.250;10.406;2022-12-05T08:11:31;25.83;;;11.80;;
2858;SDS011;1437;53.250;10.406;2022-12-05T08:14:13;31.10;;;15.00;;
2858;SDS011;1437;53.250;10.406;2022-12-05T08:16:56;27.90;;;14.20;;
2858;SDS011;1437;53.250;10.406;2022-12-05T08:19:30;30.27;;;13.97;;
2858;SDS011;1437;53.250;10.406;2022-12-05T08:21:58;23.73;;;13.00;;
2858;SDS011;1437;53.250;10.406;2022-12-05T08:24:29;29.80;;;15.03;;
2858;SDS011;1437;53.250;10.406;2022-12-05T08:26:59;42.30;;;16.47;;
2858;SDS011;1437;53.250;10.406;2022-12-05T08:29:29;27.87;;;13.90;;
2858;SDS011;1437;53.250;10.406;2022-12-05T08:31:57;33.70;;;13.80;;
2858;SDS011;1437;53.250;10.406;2022-12-05T08:34:25;39.63;;;13.63;;
2858;SDS011;1437;53.250;10.406;2022-12-05T08:36:53;46.20;;;20.43;;
2858;SDS011;1437;53.250;10.406;2022-12-05T08:39:21;38.93;;;16.27;;
2858;SDS011;1437;53.250;10.406;2022-12-05T08:41:52;39.00;;;13.70;;
2858;SDS011;1437;53.250;10.406;2022-12-05T08:44:20;38.03;;;14.73;;
2858;SDS011;1437;53.250;10.406;2022-12-05T08:46:58;27.70;;;13.90;;
2858;SDS011;1437;53.250;10.406;2022-12-05T08:49:46;30.13;;;14.37;;
2858;SDS011;1437;53.250;10.406;2022-12-05T08:52:27;37.40;;;15.50;;
2858;SDS011;1437;53.250;10.406;2022-12-05T08:54:55;37.27;;;15.03;;
2858;SDS011;1437;53.250;10.406;2022-12-05T08:57:33;37.93;;;13.93;;
2858;SDS011;1437;53.250;10.406;2022-12-05T09:00:01;28.03;;;14.87;;
2858;SDS011;1437;53.250;10.406;2022-12-05T09:02:34;30.80;;;14.00;;
2858;SDS011;1437;53.250;10.406;2022-12-05T09:05:14;30.57;;;13.67;;
2858;SDS011;1437;53.250;10.406;2022-12-05T09:07:42;31.57;;;13.00;;
2858;SDS011;1437;53.250;10.406;2022-12-05T09:10:49;30.77;;;13.87;;
2858;SDS011;1437;53.250;10.406;2022-12-05T09:13:28;29.20;;;14.20;;
2858;SDS011;1437;53.250;10.406;2022-12-05T09:16:03;35.37;;;14.70;;
2858;SDS011;1437;53.250;10.406;2022-12-05T09:18:35;22.80;;;12.27;;
2858;SDS011;1437;53.250;10.406;2022-12-05T09:21:06;29.17;;;13.23;;
2858;SDS011;1437;53.250;10.406;2022-12-05T09:23:41;28.00;;;12.73;;
2858;SDS011;1437;53.250;10.406;2022-12-05T09:26:14;50.60;;;20.30;;
2858;SDS011;1437;53.250;10.406;2022-12-05T09:28:54;36.53;;;15.77;;
2858;SDS011;1437;53.250;10.406;2022-12-05T09:31:29;28.37;;;13.57;;
2858;SDS011;1437;53.250;10.406;2022-12-05T09:34:05;38.97;;;14.80;;
2858;SDS011;1437;53.250;10.406;2022-12-05T09:36:42;29.33;;;13.33;;
2858;SDS011;1437;53.250;10.406;2022-12-05T09:39:26;25.63;;;12.30;;
2858;SDS011;1437;53.250;10.406;2022-12-05T09:42:04;31.00;;;12.97;;
2858;SDS011;1437;53.250;10.406;2022-12-05T09:44:40;29.37;;;13.20;;
2858;SDS011;1437;53.250;10.406;2022-12-05T09:47:11;39.27;;;13.47;;
2858;SDS011;1437;53.250;10.406;2022-12-05T09:49:46;32.83;;;13.83;;
2858;SDS011;1437;53.250;10.406;2022-12-05T09:52:16;32.57;;;13.90;;
2858;SDS011;1437;53.250;10.406;2022-12-05T09:54:53;27.03;;;11.67;;
2858;SDS011;1437;53.250;10.406;2022-12-05T09:57:28;24.53;;;10.83;;
2858;SDS011;1437;53.250;10.406;2022-12-05T10:00:17;29.70;;;11.30;;
2858;SDS011;1437;53.250;10.406;2022-12-05T10:03:17;24.67;;;11.43;;
2858;SDS011;1437;53.250;10.406;2022-12-05T10:05:59;24.83;;;11.10;;
2858;SDS011;1437;53.250;10.406;2022-12-05T10:11:54;29.87;;;12.97;;
2858;SDS011;1437;53.250;10.406;2022-12-05T10:14:39;28.63;;;12.10;;
2858;SDS011;1437;53.250;10.406;2022-12-05T10:17:25;19.97;;;10.10;;
2858;SDS011;1437;53.250;10.406;2022-12-05T10:20:02;22.80;;;10.17;;
2858;SDS011;1437;53.250;10.406;2022-12-05T10:22:37;19.20;;;9.83;;
2858;SDS011;1437;53.250;10.406;2022-12-05T10:25:11;24.07;;;10.30;;
2858;SDS011;1437;53.250;10.406;2022-12-05T10:28:10;25.80;;;11.97;;
2858;SDS011;1437;53.250;10.406;2022-12-05T10:30:50;23.17;;;11.00;;
2858;SDS011;1437;53.250;10.406;2022-12-05T10:33:30;23.70;;;10.73;;
2858;SDS011;1437;53.250;10.406;2022-12-05T10:36:08;21.53;;;11.17;;
2858;SDS011;1437;53.250;10.406;2022-12-05T10:38:55;24.60;;;10.77;;
2858;SDS011;1437;53.250;10.406;2022-12-05T10:44:17;24.53;;;13.03;;
2858;SDS011;1437;53.250;10.406;2022-12-05T10:46:49;20.33;;;9.77;;
2858;SDS011;1437;53.250;10.406;2022-12-05T10:49:20;20.43;;;10.33;;
2858;SDS011;1437;53.250;10.406;2022-12-05T10:51:50;24.57;;;13.40;;
2858;SDS011;1437;53.250;10.406;2022-12-05T10:54:21;28.33;;;12.17;;
2858;SDS011;1437;53.250;10.406;2022-12-05T10:56:56;23.90;;;11.83;;
2858;SDS011;1437;53.250;10.406;2022-12-05T10:59:42;27.37;;;12.17;;
2858;SDS011;1437;53.250;10.406;2022-12-05T11:02:17;32.80;;;12.07;;
2858;SDS011;1437;53.250;10.406;2022-12-05T11:04:52;27.47;;;12.67;;
2858;SDS011;1437;53.250;10.406;2022-12-05T11:07:28;26.70;;;12.40;;
2858;SDS011;1437;53.250;10.406;2022-12-05T11:10:21;27.57;;;10.83;;
2858;SDS011;1437;53.250;10.406;2022-12-05T11:12:55;18.77;;;10.80;;
2858;SDS011;1437;53.250;10.406;2022-12-05T11:15:28;20.33;;;9.33;;
2858;SDS011;1437;53.250;10.406;2022-12-05T11:18:17;20.50;;;10.03;;
2858;SDS011;1437;53.250;10.406;2022-12-05T11:20:53;20.43;;;10.47;;
2858;SDS011;1437;53.250;10.406;2022-12-05T11:24:11;32.40;;;12.80;;
2858;SDS011;1437;53.250;10.406;2022-12-05T11:30:00;32.63;;;10.70;;
2858;SDS011;1437;53.250;10.406;2022-12-05T11:32:50;30.23;;;16.30;;
2858;SDS011;1437;53.250;10.406;2022-12-05T11:35:21;25.13;;;11.07;;
2858;SDS011;1437;53.250;10.406;2022-12-05T11:37:59;25.23;;;10.70;;
2858;SDS011;1437;53.250;10.406;2022-12-05T11:40:33;26.80;;;9.93;;
2858;SDS011;1437;53.250;10.406;2022-12-05T11:46:17;21.47;;;11.70;;
2858;SDS011;1437;53.250;10.406;2022-12-05T11:49:31;18.77;;;10.63;;
2858;SDS011;1437;53.250;10.406;2022-12-05T11:52:17;21.87;;;10.77;;
2858;SDS011;1437;53.250;10.406;2022-12-05T11:54:58;19.77;;;8.60;;
2858;SDS011;1437;53.250;10.406;2022-12-05T12:00:40;22.30;;;11.30;;
2858;SDS011;1437;53.250;10.406;2022-12-05T12:06:27;24.00;;;12.30;;
2858;SDS011;1437;53.250;10.406;2022-12-05T12:09:14;26.40;;;9.30;;
2858;SDS011;1437;53.250;10.406;2022-12-05T12:12:16;15.93;;;9.60;;
2858;SDS011;1437;53.250;10.406;2022-12-05T12:14:48;32.37;;;13.13;;
2858;SDS011;1437;53.250;10.406;2022-12-05T12:17:20;18.70;;;9.57;;
2858;SDS011;1437;53.250;10.406;2022-12-05T12:20:27;21.00;;;9.47;;
2858;SDS011;1437;53.250;10.406;2022-12-05T12:28:54;31.50;;;12.10;;
2858;SDS011;1437;53.250;10.406;2022-12-05T12:31:35;18.80;;;9.90;;
2858;SDS011;1437;53.250;10.406;2022-12-05T12:37:16;24.57;;;10.50;;
2858;SDS011;1437;53.250;10.406;2022-12-05T12:39:48;15.70;;;9.97;;
2858;SDS011;1437;53.250;10.406;2022-12-05T12:42:24;20.33;;;9.30;;
2858;SDS011;1437;53.250;10.406;2022-12-05T12:45:21;16.43;;;10.20;;
2858;SDS011;1437;53.250;10.406;2022-12-05T12:48:13;20.33;;;10.17;;
2858;SDS011;1437;53.250;10.406;2022-12-05T12:50:49;19.87;;;8.60;;
2858;SDS011;1437;53.250;10.406;2022-12-05T12:53:38;17.50;;;9.93;;
2858;SDS011;1437;53.250;10.406;2022-12-05T12:56:28;12.33;;;7.80;;
2858;SDS011;1437;53.250;10.406;2022-12-05T12:59:09;13.37;;;8.13;;
2858;SDS011;1437;53.250;10.406;2022-12-05T13:01:43;17.40;;;9.70;;
2858;SDS011;1437;53.250;10.406;2022-12-05T13:04:13;20.00;;;9.40;;
2858;SDS011;1437;53.250;10.406;2022-12-05T13:06:43;26.87;;;11.20;;
2858;SDS011;1437;53.250;10.406;2022-12-05T13:09:19;22.17;;;10.03;;
2858;SDS011;1437;53.250;10.406;2022-12-05T13:14:54;21.10;;;8.60;;
2858;SDS011;1437;53.250;10.406;2022-12-05T13:17:36;13.03;;;7.37;;
2858;SDS011;1437;53.250;10.406;2022-12-05T13:20:12;18.70;;;9.10;;
2858;SDS011;1437;53.250;10.406;2022-12-05T13:22:43;21.13;;;8.30;;
2858;SDS011;1437;53.250;10.406;2022-12-05T13:25:12;17.17;;;9.50;;
2858;SDS011;1437;53.250;10.406;2022-12-05T13:44:11;15.40;;;9.10;;
2858;SDS011;1437;53.250;10.406;2022-12-05T13:49:50;10.90;;;6.97;;
2858;SDS011;1437;53.250;10.406;2022-12-05T13:53:03;13.87;;;7.63;;
2858;SDS011;1437;53.250;10.406;2022-12-05T13:55:55;18.13;;;7.50;;
2858;SDS011;1437;53.250;10.406;2022-12-05T14:01:51;14.87;;;7.83;;
2858;SDS011;1437;53.250;10.406;2022-12-05T14:07:38;14.73;;;7.30;;
2858;SDS011;1437;53.250;10.406;2022-12-05T14:35:00;7.80;;;5.20;;
2858;SDS011;1437;53.250;10.406;2022-12-05T14:40:45;13.13;;;7.40;;
2858;SDS011;1437;53.250;10.406;2022-12-05T14:43:21;16.33;;;8.40;;
2858;SDS011;1437;53.250;10.406;2022-12-05T14:49:50;20.07;;;8.77;;
2858;SDS011;1437;53.250;10.406;2022-12-05T14:52:26;17.30;;;9.20;;
2858;SDS011;1437;53.250;10.406;2022-12-05T14:55:09;18.17;;;9.30;;
2858;SDS011;1437;53.250;10.406;2022-12-05T14:57:43;18.07;;;9.67;;
2858;SDS011;1437;53.250;10.406;2022-12-05T15:00:18;12.63;;;7.13;;
2858;SDS011;1437;53.250;10.406;2022-12-05T15:02:53;9.80;;;6.60;;
2858;SDS011;1437;53.250;10.406;2022-12-05T15:05:42;14.37;;;8.03;;
2858;SDS011;1437;53.250;10.406;2022-12-05T15:08:26;11.40;;;7.33;;
2858;SDS011;1437;53.250;10.406;2022-12-05T15:11:03;17.27;;;6.77;;
2858;SDS011;1437;53.250;10.406;2022-12-05T15:13:32;13.43;;;7.23;;
2858;SDS011;1437;53.250;10.406;2022-12-05T15:16:02;15.83;;;8.37;;
2858;SDS011;1437;53.250;10.406;2022-12-05T15:18:49;11.03;;;6.60;;
2858;SDS011;1437;53.250;10.406;2022-12-05T15:21:26;13.70;;;7.30;;
2858;SDS011;1437;53.250;10.406;2022-12-05T15:24:17;15.20;;;6.67;;
2858;SDS011;1437;53.250;10.406;2022-12-05T15:26:53;12.83;;;6.77;;
2858;SDS011;1437;53.250;10.406;2022-12-05T15:29:30;12.87;;;7.30;;
2858;SDS011;1437;53.250;10.406;2022-12-05T15:35:17;13.90;;;8.67;;
2858;SDS011;1437;53.250;10.406;2022-12-05T15:37:58;12.23;;;7.20;;
2858;SDS011;1437;53.250;10.406;2022-12-05T15:40:44;14.53;;;7.07;;
2858;SDS011;1437;53.250;10.406;2022-12-05T15:43:32;11.70;;;7.20;;
2858;SDS011;1437;53.250;10.406;2022-12-05T15:46:37;19.40;;;8.53;;
2858;SDS011;1437;53.250;10.406;2022-12-05T15:49:27;13.33;;;8.37;;
2858;SDS011;1437;53.250;10.406;2022-12-05T15:52:12;13.23;;;7.70;;
2858;SDS011;1437;53.250;10.406;2022-12-05T15:55:02;12.97;;;7.57;;
2858;SDS011;1437;53.250;10.406;2022-12-05T15:57:45;19.40;;;7.70;;
2858;SDS011;1437;53.250;10.406;2022-12-05T16:00:27;12.80;;;7.20;;
2858;SDS011;1437;53.250;10.406;2022-12-05T16:06:08;15.00;;;7.53;;
2858;SDS011;1437;53.250;10.406;2022-12-05T16:09:04;14.50;;;6.37;;
2858;SDS011;1437;53.250;10.406;2022-12-05T16:11:34;11.53;;;7.67;;
2858;SDS011;1437;53.250;10.406;2022-12-05T16:14:05;12.80;;;6.83;;
2858;SDS011;1437;53.250;10.406;2022-12-05T16:16:36;13.40;;;5.53;;
2858;SDS011;1437;53.250;10.406;2022-12-05T16:19:13;11.97;;;6.23;;
2858;SDS011;1437;53.250;10.406;2022-12-05T16:21:44;13.23;;;7.70;;
2858;SDS011;1437;53.250;10.406;2022-12-05T16:24:16;11.97;;;7.27;;
2858;SDS011;1437;53.250;10.406;2022-12-05T16:26:51;30.80;;;14.07;;
2858;SDS011;1437;53.250;10.406;2022-12-05T16:29:30;9.50;;;7.00;;
2858;SDS011;1437;53.250;10.406;2022-12-05T16:32:13;10.13;;;6.23;;
2858;SDS011;1437;53.250;10.406;2022-12-05T16:34:48;8.60;;;5.73;;
2858;SDS011;1437;53.250;10.406;2022-12-05T16:37:21;14.27;;;7.17;;
2858;SDS011;1437;53.250;10.406;2022-12-05T16:39:49;16.20;;;7.30;;
2858;SDS011;1437;53.250;10.406;2022-12-05T16:42:20;10.17;;;5.90;;
2858;SDS011;1437;53.250;10.406;2022-12-05T16:44:58;11.53;;;8.10;;
2858;SDS011;1437;53.250;10.406;2022-12-05T16:50:22;15.20;;;8.43;;
2858;SDS011;1437;53.250;10.406;2022-12-05T16:53:10;11.77;;;7.37;;
2858;SDS011;1437;53.250;10.406;2022-12-05T16:55:55;13.10;;;7.50;;
2858;SDS011;1437;53.250;10.406;2022-12-05T16:58:30;10.03;;;5.87;;
2858;SDS011;1437;53.250;10.406;2022-12-05T17:01:03;14.47;;;7.37;;
2858;SDS011;1437;53.250;10.406;2022-12-05T17:03:38;15.37;;;7.27;;
2858;SDS011;1437;53.250;10.406;2022-12-05T17:06:13;11.20;;;6.40;;
2858;SDS011;1437;53.250;10.406;2022-12-05T17:08:46;11.43;;;6.63;;